createdAt,value
2022-12-27T00:01:47.727Z,60.60
2022-12-27T00:04:45.533Z,61.02
2022-12-27T00:07:42.960Z,60.51
2022-12-27T00:10:40.748Z,61.14
2022-12-27T00:13:38.177Z,61.12
2022-12-27T00:16:35.930Z,60.85
2022-12-27T00:19:33.417Z,60.88
2022-12-27T00:22:31.126Z,60.95
2022-12-27T00:25:28.582Z,60.63
2022-12-27T00:28:26.321Z,60.86
2022-12-27T00:31:23.828Z,61.23
2022-12-27T00:34:21.421Z,61.26
2022-12-27T00:37:19.141Z,61.95
2022-12-27T00:40:16.608Z,62.14
2022-12-27T00:43:14.335Z,66.08
2022-12-27T00:46:11.819Z,66.50
2022-12-27T00:49:09.567Z,66.14
2022-12-27T00:52:07.025Z,58.70
2022-12-27T00:55:04.806Z,55.70
2022-12-27T00:58:02.273Z,55.97
2022-12-27T01:01:00.058Z,56.31
2022-12-27T01:03:57.651Z,57.05
2022-12-27T01:06:55.550Z,58.70
2022-12-27T01:09:53.316Z,59.03
2022-12-27T01:12:50.782Z,59.54
2022-12-27T01:15:48.437Z,60.09
2022-12-27T01:18:45.886Z,62.02
2022-12-27T01:21:43.780Z,64.23
2022-12-27T01:24:41.219Z,64.94
2022-12-27T01:27:38.840Z,64.38
2022-12-27T01:30:36.268Z,60.67
2022-12-27T01:33:33.856Z,60.45
2022-12-27T01:36:31.803Z,58.75
2022-12-27T01:39:29.247Z,57.94
2022-12-27T01:42:44.654Z,58.91
2022-12-27T01:45:42.126Z,59.23
2022-12-27T01:48:39.870Z,60.40
2022-12-27T01:51:37.445Z,61.20
2022-12-27T01:54:35.216Z,63.78
2022-12-27T01:57:32.865Z,64.39
2022-12-27T02:00:30.337Z,63.25
2022-12-27T02:03:28.713Z,64.76
2022-12-27T02:06:26.145Z,64.21
2022-12-27T02:09:23.830Z,62.51
2022-12-27T02:12:21.268Z,61.36
2022-12-27T02:15:18.878Z,58.68
2022-12-27T02:18:16.311Z,56.86
2022-12-27T02:21:14.081Z,57.10
2022-12-27T02:24:11.749Z,58.69
2022-12-27T02:27:09.931Z,59.17
2022-12-27T02:30:07.568Z,59.90
2022-12-27T02:33:05.214Z,60.52
2022-12-27T02:36:02.825Z,60.97
2022-12-27T02:39:00.238Z,63.67
2022-12-27T02:42:15.874Z,66.44
2022-12-27T02:45:31.673Z,68.60
2022-12-27T02:48:47.124Z,68.98
2022-12-27T02:52:02.942Z,64.30
2022-12-27T02:55:00.365Z,56.23
2022-12-27T02:57:58.172Z,53.70
2022-12-27T03:01:28.157Z,54.61
2022-12-27T03:04:25.635Z,55.10
2022-12-27T03:07:23.314Z,56.53
2022-12-27T03:10:38.319Z,57.78
2022-12-27T03:13:53.858Z,58.57
2022-12-27T03:16:56.716Z,58.92
2022-12-27T03:20:20.727Z,59.78
2022-12-27T03:23:35.884Z,61.06
2022-12-27T03:26:33.675Z,64.80
2022-12-27T03:29:49.047Z,64.55
2022-12-27T03:33:03.376Z,62.60
2022-12-27T03:36:20.935Z,61.86
2022-12-27T03:39:18.373Z,62.36
2022-12-27T03:42:33.969Z,60.35
2022-12-27T03:45:45.541Z,58.19
2022-12-27T03:48:42.964Z,57.98
2022-12-27T03:51:40.590Z,57.34
2022-12-27T03:54:38.035Z,57.87
2022-12-27T03:57:35.709Z,58.70
2022-12-27T04:00:33.140Z,59.15
2022-12-27T04:03:30.886Z,59.76
2022-12-27T04:06:28.567Z,59.84
2022-12-27T04:09:43.527Z,60.26
2022-12-27T04:12:59.264Z,60.19
2022-12-27T04:16:14.720Z,63.58
2022-12-27T04:19:30.236Z,64.73
2022-12-27T04:22:45.826Z,63.60
2022-12-27T04:26:00.852Z,63.14
2022-12-27T04:29:16.266Z,61.38
2022-12-27T04:32:31.299Z,60.65
2022-12-27T04:35:29.000Z,60.52
2022-12-27T04:38:26.440Z,60.10
2022-12-27T04:41:56.624Z,60.25
2022-12-27T04:45:15.447Z,60.35
2022-12-27T04:48:31.164Z,60.11
2022-12-27T04:51:55.220Z,60.17
2022-12-27T04:54:58.671Z,60.40
2022-12-27T04:57:56.392Z,60.56
2022-12-27T05:01:14.289Z,60.43
2022-12-27T05:04:11.985Z,60.22
2022-12-27T05:07:23.496Z,60.05
2022-12-27T05:10:38.932Z,60.02
2022-12-27T05:13:54.339Z,60.10
2022-12-27T05:16:52.002Z,59.89
2022-12-27T05:19:49.415Z,58.82
2022-12-27T05:23:05.399Z,57.06
2022-12-27T05:26:02.846Z,57.26
2022-12-27T05:29:00.512Z,58.40
2022-12-27T05:31:58.258Z,59.48
2022-12-27T05:34:55.730Z,60.57
2022-12-27T05:37:55.178Z,61.23
2022-12-27T05:40:52.797Z,60.97
2022-12-27T05:43:50.569Z,60.88
2022-12-27T05:46:48.042Z,60.90
2022-12-27T05:49:45.673Z,61.77
2022-12-27T05:52:43.150Z,61.42
2022-12-27T05:55:40.895Z,61.61
2022-12-27T05:58:38.374Z,63.50
2022-12-27T06:01:36.208Z,66.86
2022-12-27T06:04:34.003Z,64.12
2022-12-27T06:07:31.456Z,59.16
2022-12-27T06:10:29.124Z,54.91
2022-12-27T06:13:26.563Z,54.89
2022-12-27T06:16:24.162Z,54.23
2022-12-27T06:19:21.578Z,54.95
2022-12-27T06:22:19.196Z,54.74
2022-12-27T06:25:16.622Z,54.75
2022-12-27T06:28:14.391Z,55.73
2022-12-27T06:31:11.847Z,55.96
2022-12-27T06:34:09.574Z,56.40
2022-12-27T06:37:07.287Z,56.74
2022-12-27T06:40:04.724Z,56.95
2022-12-27T06:43:02.566Z,56.42
2022-12-27T06:46:00.038Z,56.25
2022-12-27T06:48:57.845Z,57.22
2022-12-27T06:51:59.470Z,57.28
2022-12-27T06:54:57.797Z,56.69
2022-12-27T06:57:55.259Z,56.81
2022-12-27T07:00:53.068Z,56.47
2022-12-27T07:03:51.186Z,56.38
2022-12-27T07:06:48.611Z,56.63
2022-12-27T07:09:46.417Z,57.54
2022-12-27T07:12:43.871Z,57.24
2022-12-27T07:15:41.635Z,56.82
2022-12-27T07:18:39.077Z,57.47
2022-12-27T07:21:36.760Z,58.03
2022-12-27T07:24:34.393Z,57.10
2022-12-27T07:27:32.089Z,56.91
2022-12-27T07:30:30.339Z,57.21
2022-12-27T07:33:28.060Z,57.21
2022-12-27T07:36:25.695Z,57.39
2022-12-27T07:39:23.131Z,57.52
2022-12-27T07:42:20.812Z,58.62
2022-12-27T07:45:18.240Z,58.78
2022-12-27T07:48:15.953Z,58.79
2022-12-27T07:51:13.363Z,59.01
2022-12-27T07:54:11.089Z,59.67
2022-12-27T07:57:08.541Z,59.46
2022-12-27T08:00:08.099Z,59.63
2022-12-27T08:03:05.588Z,60.37
2022-12-27T08:06:03.480Z,59.73
2022-12-27T08:09:01.142Z,59.92
2022-12-27T08:11:58.579Z,60.00
2022-12-27T08:14:56.372Z,59.97
2022-12-27T08:17:53.823Z,59.97
2022-12-27T08:20:51.800Z,60.62
2022-12-27T08:23:49.245Z,60.46
2022-12-27T08:26:47.029Z,60.17
2022-12-27T08:29:44.465Z,60.43
2022-12-27T08:32:42.152Z,60.36
2022-12-27T08:35:52.869Z,60.31
2022-12-27T08:38:51.611Z,60.13
2022-12-27T08:41:49.289Z,59.71
2022-12-27T08:44:46.712Z,59.95
2022-12-27T08:47:44.519Z,60.08
2022-12-27T08:50:41.959Z,59.58
2022-12-27T08:53:39.723Z,59.06
2022-12-27T08:56:37.190Z,58.82
2022-12-27T08:59:34.917Z,58.57
2022-12-27T09:02:32.461Z,59.36
2022-12-27T09:05:30.276Z,59.10
2022-12-27T09:08:27.976Z,59.22
2022-12-27T09:11:25.413Z,59.24
2022-12-27T09:14:23.195Z,58.48
2022-12-27T09:17:20.652Z,58.64
2022-12-27T09:20:18.109Z,58.86
2022-12-27T09:23:15.603Z,58.66
2022-12-27T09:26:13.090Z,58.72
2022-12-27T09:29:10.902Z,57.91
2022-12-27T09:32:08.319Z,57.80
2022-12-27T09:35:05.954Z,56.76
2022-12-27T09:38:03.419Z,57.05
2022-12-27T09:41:01.166Z,57.47
2022-12-27T09:43:59.205Z,56.85
2022-12-27T09:46:56.975Z,56.55
2022-12-27T09:49:54.408Z,56.03
2022-12-27T09:52:52.251Z,55.49
2022-12-27T09:55:49.678Z,55.63
2022-12-27T09:58:47.444Z,55.12
2022-12-27T10:01:48.108Z,54.42
2022-12-27T10:05:18.616Z,54.28
2022-12-27T10:08:03.381Z,54.60
2022-12-27T10:11:00.807Z,53.68
2022-12-27T10:13:58.811Z,54.07
2022-12-27T10:16:56.453Z,54.53
2022-12-27T10:19:53.952Z,53.19
2022-12-27T10:22:51.387Z,54.29
2022-12-27T10:25:48.865Z,53.92
2022-12-27T10:28:46.822Z,53.63
2022-12-27T10:31:44.342Z,53.20
2022-12-27T10:34:42.042Z,52.94
2022-12-27T10:37:39.482Z,52.98
2022-12-27T10:40:37.523Z,52.72
2022-12-27T10:43:34.949Z,53.09
2022-12-27T10:46:33.676Z,53.52
2022-12-27T10:49:32.011Z,52.85
2022-12-27T10:52:29.443Z,52.73
2022-12-27T10:55:27.345Z,52.58
2022-12-27T10:58:25.115Z,53.12
2022-12-27T11:01:23.188Z,52.66
2022-12-27T11:04:21.698Z,51.86
2022-12-27T11:07:19.943Z,52.13
2022-12-27T11:10:17.478Z,51.99
2022-12-27T11:13:15.596Z,52.18
2022-12-27T11:16:13.484Z,52.76
2022-12-27T11:19:11.422Z,52.61
2022-12-27T11:22:09.393Z,52.95
2022-12-27T11:25:07.882Z,52.00
2022-12-27T11:28:05.337Z,53.19
2022-12-27T11:31:03.210Z,52.52
2022-12-27T11:34:01.081Z,52.76
2022-12-27T11:36:58.512Z,52.75
2022-12-27T11:39:56.302Z,52.73
2022-12-27T11:42:53.715Z,52.72
2022-12-27T11:45:51.657Z,53.32
2022-12-27T11:48:49.251Z,53.15
2022-12-27T11:51:47.051Z,52.73
2022-12-27T11:54:45.040Z,52.74
2022-12-27T11:57:42.490Z,52.97
2022-12-27T12:00:40.485Z,53.64
2022-12-27T12:03:38.025Z,52.94
2022-12-27T12:06:35.920Z,53.41
2022-12-27T12:09:33.690Z,52.81
2022-12-27T12:12:31.132Z,52.82
2022-12-27T12:15:29.006Z,52.84
2022-12-27T12:18:26.462Z,52.39
2022-12-27T12:21:26.206Z,53.04
2022-12-27T12:24:23.624Z,52.78
2022-12-27T12:27:22.770Z,53.07
2022-12-27T12:30:26.890Z,53.09
2022-12-27T12:33:24.821Z,53.24
2022-12-27T12:36:22.794Z,53.63
2022-12-27T12:39:20.782Z,52.66
2022-12-27T12:42:18.631Z,53.07
2022-12-27T12:45:17.132Z,53.81
2022-12-27T12:48:14.553Z,53.06
2022-12-27T12:51:12.445Z,53.02
2022-12-27T12:54:09.888Z,53.00
2022-12-27T12:57:07.779Z,53.01
2022-12-27T13:00:09.442Z,53.06
2022-12-27T13:03:07.085Z,53.39
2022-12-27T13:06:05.173Z,53.54
2022-12-27T13:09:02.871Z,53.76
2022-12-27T13:12:00.820Z,54.00
2022-12-27T13:14:58.279Z,53.81
2022-12-27T13:17:55.864Z,53.96
2022-12-27T13:20:53.345Z,54.12
2022-12-27T13:23:51.251Z,54.24
2022-12-27T13:26:48.789Z,54.22
2022-12-27T13:29:46.270Z,54.58
2022-12-27T13:32:44.162Z,54.56
2022-12-27T13:35:42.119Z,54.65
2022-12-27T13:38:39.901Z,54.53
2022-12-27T13:41:37.851Z,54.66
2022-12-27T13:44:35.306Z,54.93
2022-12-27T13:47:33.095Z,54.82
2022-12-27T13:50:31.175Z,54.82
2022-12-27T13:53:28.597Z,54.74
2022-12-27T13:56:53.318Z,54.92
2022-12-27T13:59:43.850Z,54.84
2022-12-27T14:02:41.927Z,54.93
2022-12-27T14:05:39.456Z,55.22
2022-12-27T14:08:37.268Z,55.51
2022-12-27T14:11:34.682Z,55.25
2022-12-27T14:14:32.562Z,55.49
2022-12-27T14:17:29.999Z,55.61
2022-12-27T14:20:27.969Z,55.71
2022-12-27T14:23:25.376Z,55.62
2022-12-27T14:26:23.431Z,55.56
2022-12-27T14:29:20.877Z,55.67
2022-12-27T14:32:18.740Z,55.73
2022-12-27T14:35:16.144Z,55.62
2022-12-27T14:38:14.089Z,56.10
2022-12-27T14:41:11.514Z,56.04
2022-12-27T14:44:11.062Z,56.23
2022-12-27T14:47:08.498Z,56.29
2022-12-27T14:50:06.405Z,56.36
2022-12-27T14:53:03.937Z,56.47
2022-12-27T14:56:02.340Z,56.66
2022-12-27T14:58:59.777Z,56.74
2022-12-27T15:01:57.826Z,56.96
2022-12-27T15:04:55.459Z,57.16
2022-12-27T15:07:54.114Z,57.47
2022-12-27T15:10:51.546Z,57.45
2022-12-27T15:13:49.425Z,57.94
2022-12-27T15:16:47.023Z,57.86
2022-12-27T15:19:44.891Z,57.28
2022-12-27T15:22:42.639Z,57.22
2022-12-27T15:25:40.510Z,57.17
2022-12-27T15:28:38.015Z,57.18
2022-12-27T15:31:36.075Z,57.22
2022-12-27T15:34:33.811Z,57.41
2022-12-27T15:37:31.689Z,57.53
2022-12-27T15:40:29.163Z,57.66
2022-12-27T15:43:27.218Z,57.85
2022-12-27T15:46:25.073Z,58.00
2022-12-27T15:49:22.523Z,58.19
2022-12-27T15:52:20.400Z,58.43
2022-12-27T15:55:18.285Z,58.71
2022-12-27T15:58:16.145Z,58.92
2022-12-27T16:01:14.185Z,59.09
2022-12-27T16:04:12.157Z,59.30
2022-12-27T16:07:09.600Z,59.58
2022-12-27T16:10:07.486Z,59.79
2022-12-27T16:13:05.529Z,59.97
2022-12-27T16:16:03.409Z,60.14
2022-12-27T16:19:01.519Z,60.31
2022-12-27T16:21:58.988Z,60.48
2022-12-27T16:24:56.874Z,60.61
2022-12-27T16:27:54.340Z,60.70
2022-12-27T16:30:52.211Z,60.82
2022-12-27T16:33:49.666Z,60.96
2022-12-27T16:36:47.692Z,61.14
2022-12-27T16:39:45.117Z,61.24
2022-12-27T16:42:43.056Z,61.33
2022-12-27T16:45:40.505Z,61.42
2022-12-27T16:48:38.586Z,61.64
2022-12-27T16:51:36.016Z,61.83
2022-12-27T16:54:33.844Z,62.00
2022-12-27T16:57:31.292Z,66.84
2022-12-27T17:00:29.117Z,75.37
2022-12-27T17:03:26.860Z,75.07
2022-12-27T17:06:33.717Z,70.22
2022-12-27T17:09:34.067Z,67.87
2022-12-27T17:12:33.328Z,59.93
2022-12-27T17:15:30.771Z,53.11
2022-12-27T17:18:28.978Z,51.96
2022-12-27T17:21:30.226Z,52.19
2022-12-27T17:24:28.600Z,52.78
2022-12-27T17:27:26.130Z,53.53
2022-12-27T17:30:23.999Z,54.32
2022-12-27T17:33:21.446Z,55.20
2022-12-27T17:36:19.355Z,56.02
2022-12-27T17:39:16.822Z,56.77
2022-12-27T17:42:32.495Z,57.53
2022-12-27T17:45:31.429Z,58.05
2022-12-27T17:48:29.399Z,58.86
2022-12-27T17:51:26.842Z,59.49
2022-12-27T17:54:42.312Z,60.17
2022-12-27T17:57:58.189Z,60.60
2022-12-27T18:00:56.113Z,61.15
2022-12-27T18:03:53.574Z,66.78
2022-12-27T18:06:51.594Z,74.59
2022-12-27T18:09:49.420Z,75.11
2022-12-27T18:12:47.447Z,70.48
2022-12-27T18:15:45.725Z,67.69
2022-12-27T18:18:44.217Z,62.40
2022-12-27T18:21:42.082Z,56.65
2022-12-27T18:24:45.102Z,52.99
2022-12-27T18:27:43.139Z,52.67
2022-12-27T18:30:40.601Z,53.23
2022-12-27T18:33:38.355Z,53.97
2022-12-27T18:36:35.870Z,54.88
2022-12-27T18:39:34.222Z,55.73
2022-12-27T18:42:32.006Z,56.53
2022-12-27T18:45:29.885Z,57.42
2022-12-27T18:48:27.431Z,58.24
2022-12-27T18:51:25.163Z,58.90
2022-12-27T18:54:23.380Z,59.59
2022-12-27T18:57:21.458Z,60.29
2022-12-27T19:00:19.618Z,60.87
2022-12-27T19:03:17.205Z,65.99
2022-12-27T19:06:14.976Z,69.25
2022-12-27T19:09:12.394Z,66.20
2022-12-27T19:12:10.007Z,64.49
2022-12-27T19:15:07.455Z,66.55
2022-12-27T19:18:05.109Z,68.02
2022-12-27T19:21:04.101Z,66.97
2022-12-27T19:24:01.532Z,63.23
2022-12-27T19:27:00.900Z,58.97
2022-12-27T19:29:58.362Z,54.64
2022-12-27T19:32:56.182Z,54.13
2022-12-27T19:35:53.620Z,54.65
2022-12-27T19:38:51.835Z,55.28
2022-12-27T19:41:49.680Z,55.90
2022-12-27T19:44:47.158Z,56.56
2022-12-27T19:47:45.375Z,57.40
2022-12-27T19:50:43.526Z,58.11
2022-12-27T19:53:41.950Z,58.71
2022-12-27T19:56:40.127Z,59.38
2022-12-27T19:59:38.573Z,60.07
2022-12-27T20:02:38.840Z,60.65
2022-12-27T20:06:13.921Z,61.20
2022-12-27T20:08:54.807Z,65.68
2022-12-27T20:11:52.467Z,66.85
2022-12-27T20:14:50.205Z,65.24
2022-12-27T20:17:48.100Z,64.90
2022-12-27T20:20:46.043Z,65.45
2022-12-27T20:23:44.066Z,64.18
2022-12-27T20:26:41.798Z,63.99
2022-12-27T20:29:39.966Z,64.00
2022-12-27T20:32:38.047Z,62.53
2022-12-27T20:35:36.065Z,62.85
2022-12-27T20:38:33.654Z,62.16
2022-12-27T20:41:31.541Z,61.61
2022-12-27T20:44:29.351Z,61.31
2022-12-27T20:47:27.607Z,61.25
2022-12-27T20:50:25.269Z,60.57
2022-12-27T20:53:28.159Z,60.60
2022-12-27T20:56:25.640Z,61.42
2022-12-27T20:59:23.673Z,67.71
2022-12-27T21:02:21.678Z,67.51
2022-12-27T21:05:19.277Z,61.96
2022-12-27T21:08:16.996Z,58.12
2022-12-27T21:11:14.483Z,54.92
2022-12-27T21:14:12.455Z,54.92
2022-12-27T21:17:10.355Z,55.69
2022-12-27T21:20:11.320Z,56.43
2022-12-27T21:23:08.778Z,57.41
2022-12-27T21:26:06.565Z,58.40
2022-12-27T21:29:04.594Z,59.15
2022-12-27T21:32:02.695Z,59.99
2022-12-27T21:35:00.475Z,60.85
2022-12-27T21:37:57.996Z,65.92
2022-12-27T21:40:55.705Z,67.57
2022-12-27T21:43:53.188Z,68.07
2022-12-27T21:46:50.795Z,70.48
2022-12-27T21:49:48.232Z,70.53
2022-12-27T21:52:46.046Z,66.01
2022-12-27T21:55:43.498Z,63.38
2022-12-27T21:58:41.209Z,61.74
2022-12-27T22:01:51.835Z,57.91
2022-12-27T22:04:50.255Z,54.68
2022-12-27T22:07:48.508Z,54.80
2022-12-27T22:10:45.985Z,55.49
2022-12-27T22:13:43.746Z,56.52
2022-12-27T22:16:41.185Z,57.50
2022-12-27T22:19:38.955Z,58.52
2022-12-27T22:22:36.733Z,59.43
2022-12-27T22:25:34.239Z,60.35
2022-12-27T22:28:31.981Z,65.25
2022-12-27T22:31:30.384Z,67.85
2022-12-27T22:34:28.293Z,66.70
2022-12-27T22:37:25.757Z,66.80
2022-12-27T22:40:30.605Z,67.68
2022-12-27T22:43:28.710Z,67.62
2022-12-27T22:46:26.573Z,65.52
2022-12-27T22:49:24.303Z,64.78
2022-12-27T22:52:21.865Z,63.43
2022-12-27T22:55:19.474Z,61.84
2022-12-27T22:58:16.948Z,62.14
2022-12-27T23:01:14.805Z,61.90
2022-12-27T23:04:12.380Z,60.91
2022-12-27T23:07:10.302Z,60.42
2022-12-27T23:10:07.764Z,60.97
2022-12-27T23:13:05.411Z,61.83
2022-12-27T23:16:03.898Z,61.12
2022-12-27T23:19:01.362Z,57.81
2022-12-27T23:21:59.138Z,54.29
2022-12-27T23:24:56.579Z,54.34
2022-12-27T23:27:54.347Z,55.52
2022-12-27T23:30:51.872Z,56.52
2022-12-27T23:33:49.709Z,57.68
2022-12-27T23:36:47.419Z,58.80
2022-12-27T23:39:44.848Z,59.83
2022-12-27T23:42:42.552Z,60.85
2022-12-27T23:45:40.161Z,66.06
2022-12-27T23:48:37.906Z,69.96
2022-12-27T23:51:35.371Z,68.06
2022-12-27T23:54:33.154Z,67.15
2022-12-27T23:57:31.084Z,68.12
